Piney Point, MD current weather conditions

sailwx.info

Wind from 130 at 5 knots gusting 6

Last reported at 2019-Dec-12 17:36 UTC.
Time now 2019-Dec-12 18:29 UTC

Location: N 38°08' W 076°32'.
View on Google Maps.

See reports from other nearby stations

  
Tides and Currents Weather Stations Pressure Air Temp Water Temp Dewpoint Dewpoint Depression Visibility Wind Speed Wind Dir Waves Ship Positions
date/time (UTC)wind fromknots sea level pressurealtimeterstation pressurevisibilityair tempwater tempwave heightnotes
2019-Dec-12 17:48 135 5 gusting 6
2019-Dec-12 17:42 134 4 gusting 6
2019-Dec-12 17:36 130 5 gusting 6
2019-Dec-12 17:30 127 3 gusting 6
2019-Dec-12 17:24 125 5 gusting 6
2019-Dec-12 17:18 136 4 gusting 8
2019-Dec-12 17:12 140 6 gusting 7
2019-Dec-12 17:06 126 5 gusting 6
2019-Dec-12 17:00 120 6 gusting 8
2019-Dec-12 16:54 143 6 gusting 8
2019-Dec-12 16:48 132 6 gusting 8
2019-Dec-12 16:42 118 5 gusting 7
2019-Dec-12 16:36 076 6 gusting 7
2019-Dec-12 16:30 084 3 gusting 7
2019-Dec-12 16:24 069 5 gusting 7
2019-Dec-12 16:18 098 6 gusting 8
2019-Dec-12 16:12 097 7 gusting 10
2019-Dec-12 16:06 089 6 gusting 10
2019-Dec-12 16:00 105 7 gusting 10
2019-Dec-12 15:54 086 6 gusting 9
2019-Dec-12 15:48 059 6 gusting 9
2019-Dec-12 15:42 084 6 gusting 11
2019-Dec-12 15:36 100 7 gusting 9
2019-Dec-12 15:30 090 7 gusting 11
2019-Dec-12 15:24 115 7 gusting 13
2019-Dec-12 15:18 108 10 gusting 13
2019-Dec-12 15:12 093 8 gusting 12
2019-Dec-12 15:06 094 7 gusting 10
2019-Dec-12 15:00 074 9 gusting 12
2019-Dec-12 14:54 069 6 gusting 7
2019-Dec-12 14:48 078 7 gusting 13
2019-Dec-12 14:42 086 7 gusting 13
2019-Dec-12 14:36 088 7 gusting 13
2019-Dec-12 14:30 074 8 gusting 11
2019-Dec-12 14:24 083 7 gusting 10
2019-Dec-12 14:18 079 9 gusting 13
2019-Dec-12 14:12 068 7 gusting 12
2019-Dec-12 14:06 052 7 gusting 10
2019-Dec-12 14:00 082 7 gusting 10
2019-Dec-12 13:54 077 7 gusting 11
2019-Dec-12 13:48 088 7 gusting 10
2019-Dec-12 13:42 076 4 gusting 6
2019-Dec-12 13:36 065 3 gusting 5
2019-Dec-12 13:30 068 4 gusting 5
2019-Dec-12 13:24 069 3 gusting 4
2019-Dec-12 13:18 036 3 gusting 4
2019-Dec-12 13:12 033 3 gusting 4
2019-Dec-12 13:06 037 3 gusting 5
2019-Dec-12 13:00 023 4 gusting 5
2019-Dec-12 12:54 035 3 gusting 5
2019-Dec-12 12:48 036 3 gusting 5
2019-Dec-12 12:42 023 4 gusting 6
2019-Dec-12 12:36 024 5 gusting 7
2019-Dec-12 12:30 004 6 gusting 6
2019-Dec-12 12:24 004 6 gusting 7
2019-Dec-12 12:18 010 5 gusting 6
2019-Dec-12 12:12 360 5 gusting 6
2019-Dec-12 12:06 011 3 gusting 5
2019-Dec-12 12:00 007 3 gusting 5
2019-Dec-12 11:54 027 3 gusting 5
2019-Dec-12 11:48 007 2 gusting 3
2019-Dec-12 11:42 008 4 gusting 6
2019-Dec-12 11:36 013 3 gusting 5
2019-Dec-12 11:30 014 4 gusting 6
2019-Dec-12 11:24 004 4 gusting 6
2019-Dec-12 11:18 007 5 gusting 6
2019-Dec-12 11:12 359 5 gusting 7
2019-Dec-12 11:06 001 7 gusting 10
2019-Dec-12 11:00
2019-Dec-12 10:54 359 7 gusting 12
2019-Dec-12 10:48 352 8 gusting 10
2019-Dec-12 10:42
2019-Dec-12 10:36 357 9 gusting 11
2019-Dec-12 10:30 359 7 gusting 10
2019-Dec-12 10:24 003 8 gusting 11
2019-Dec-12 10:18 009 8 gusting 11
2019-Dec-12 10:12 005 9 gusting 11
2019-Dec-12 10:06 007 7 gusting 11
2019-Dec-12 10:00 002 11 gusting 13
2019-Dec-12 09:54 005 11 gusting 13
2019-Dec-12 09:48 359 11 gusting 13
2019-Dec-12 09:42 359 11 gusting 12
2019-Dec-12 09:36 001 11 gusting 13
2019-Dec-12 09:30 359 10 gusting 13
2019-Dec-12 09:24 007 9 gusting 12
2019-Dec-12 09:18 360 11 gusting 12
2019-Dec-12 09:12 003 11 gusting 13
2019-Dec-12 09:06 005 9 gusting 10
2019-Dec-12 09:00 011 6 gusting 7
2019-Dec-12 08:54 004 6 gusting 7
2019-Dec-12 08:48 001 6 gusting 6
2019-Dec-12 08:42 009 6 gusting 7
2019-Dec-12 08:36 007 6 gusting 7
2019-Dec-12 08:30 014 5 gusting 7
2019-Dec-12 08:24 007 6 gusting 8
2019-Dec-12 08:18 003 7 gusting 8
2019-Dec-12 08:12 010 5 gusting 8
2019-Dec-12 08:06 009 8 gusting 12
2019-Dec-12 08:00 009 8 gusting 13
2019-Dec-12 07:54 011 9 gusting 13
2019-Dec-12 07:48 008 7 gusting 10
2019-Dec-12 07:42 002 7 gusting 11
2019-Dec-12 07:36 001 5 gusting 6
2019-Dec-12 07:30 021 3 gusting 5
2019-Dec-12 07:24 030 4 gusting 7
2019-Dec-12 07:18 014 6 gusting 8
2019-Dec-12 07:00 002 9 gusting 11
2019-Dec-12 06:54 006 7 gusting 8
2019-Dec-12 06:48 021 6 gusting 10
2019-Dec-12 06:42 004 7 gusting 10
2019-Dec-12 06:36 359 7 gusting 10
2019-Dec-12 06:30 009 6 gusting 11
2019-Dec-12 06:24 014 9 gusting 13
2019-Dec-12 06:18 007 8 gusting 12
2019-Dec-12 06:12 356 9 gusting 11
2019-Dec-12 06:06 008 9 gusting 13
2019-Dec-12 06:00 005 8 gusting 12
2019-Dec-12 05:54 358 11 gusting 14
2019-Dec-12 05:48 355 12 gusting 13
2019-Dec-12 05:42 359 12 gusting 13
2019-Dec-12 05:36 354 12 gusting 16
2019-Dec-12 05:30 358 12 gusting 15
2019-Dec-12 05:24 002 14 gusting 17
2019-Dec-12 05:18 359 13 gusting 17
2019-Dec-12 05:12 360 13 gusting 18
2019-Dec-12 05:06 354 14 gusting 17
2019-Dec-12 05:00 002 12 gusting 15
2019-Dec-12 04:54 006 12 gusting 19
2019-Dec-12 04:48 351 14 gusting 17
2019-Dec-12 04:42 359 13 gusting 17
2019-Dec-12 04:36 002 13 gusting 17
2019-Dec-12 04:30 359 13 gusting 16
2019-Dec-12 04:24 009 14 gusting 18
2019-Dec-12 04:18 360 14 gusting 20
2019-Dec-12 04:12 354 16 gusting 19
2019-Dec-12 04:06 348 19 gusting 21
2019-Dec-12 04:00 353 19 gusting 24
2019-Dec-12 03:54 355 18 gusting 22
2019-Dec-12 03:48 356 16 gusting 19
2019-Dec-12 03:42 356 14 gusting 18
2019-Dec-12 03:36 358 14 gusting 18
2019-Dec-12 03:30
2019-Dec-12 03:24 354 13 gusting 17
2019-Dec-12 03:18 351 9 gusting 16
2019-Dec-12 03:12 358 9 gusting 16
2019-Dec-12 03:06 354 12 gusting 15
2019-Dec-12 03:00 007 9 gusting 13
2019-Dec-12 02:54
2019-Dec-12 02:48 079 0 gusting 3
2019-Dec-12 02:42 041 1 gusting 2
2019-Dec-12 02:36 021 2 gusting 5
2019-Dec-12 02:30 041 2 gusting 4
2019-Dec-12 02:24 011 3 gusting 5
2019-Dec-12 02:18 017 1 gusting 3
2019-Dec-12 02:12 024 2 gusting 3
2019-Dec-12 02:06 015 2 gusting 3
2019-Dec-12 02:00 024 2 gusting 3
2019-Dec-12 01:54 025 3 gusting 4
2019-Dec-12 01:48 031 3 gusting 4
2019-Dec-12 01:42 029 2 gusting 4
2019-Dec-12 01:36 029 1 gusting 3
2019-Dec-12 01:30 348
2019-Dec-12 01:24 346
2019-Dec-12 01:18 334 1 gusting 2
2019-Dec-12 01:12 356 2 gusting 3
2019-Dec-12 01:06 022 2 gusting 3
2019-Dec-12 01:00 350 1 gusting 4
2019-Dec-12 00:54 286 1 gusting 1
2019-Dec-12 00:48 359 1 gusting 5
2019-Dec-12 00:42 304 5 gusting 6
2019-Dec-12 00:36 288 3 gusting 5
2019-Dec-12 00:30 299 3 gusting 6
2019-Dec-12 00:24 279 4 gusting 5
2019-Dec-12 00:18 280 3 gusting 6
2019-Dec-12 00:12 285 4 gusting 6
2019-Dec-12 00:06 293 6 gusting 7
2019-Dec-12 00:00 290 6 gusting 7
2019-Dec-11 23:54 302 6 gusting 9
2019-Dec-11 23:48 310 7 gusting 9
2019-Dec-11 23:42 307 7 gusting 9
2019-Dec-11 23:36 341 4 gusting 7
2019-Dec-11 23:30 003 3 gusting 5
2019-Dec-11 23:24 018 3 gusting 6
2019-Dec-11 23:18 293 5 gusting 6
2019-Dec-11 23:12 287 4 gusting 6
2019-Dec-11 23:06 282 5 gusting 7
2019-Dec-11 23:00 282 6 gusting 7
2019-Dec-11 22:54 283 6 gusting 9
2019-Dec-11 22:48 292 7 gusting 9
2019-Dec-11 22:42 296 7 gusting 10
2019-Dec-11 22:36 302 7 gusting 10
2019-Dec-11 22:30 292 8 gusting 13
2019-Dec-11 22:24 311 9 gusting 13
2019-Dec-11 22:18 313 12 gusting 13
2019-Dec-11 22:12 316 11 gusting 14
2019-Dec-11 22:06 318 11 gusting 13
2019-Dec-11 22:00 310 13 gusting 15
2019-Dec-11 21:54 321 13 gusting 14
2019-Dec-11 21:48 311 11 gusting 13
2019-Dec-11 21:42 320 13 gusting 15
2019-Dec-11 21:36 307 10 gusting 13
2019-Dec-11 21:30 317 10 gusting 12
2019-Dec-11 21:24 301 11 gusting 13
2019-Dec-11 21:18 319 11 gusting 13
2019-Dec-11 21:12 314 11 gusting 14
2019-Dec-11 18:36 322 14 gusting 19
2019-Dec-11 18:24 321 12 gusting 14
2019-Dec-11 18:18 313 13 gusting 17
2019-Dec-11 18:12 325 13 gusting 18
2019-Dec-11 18:06 316 16 gusting 19
2019-Dec-11 18:00 324 17 gusting 19
2019-Dec-11 17:54 321 17 gusting 19
2019-Dec-11 17:48 332 14 gusting 19
2019-Dec-11 17:42 321 18 gusting 22
2019-Dec-11 17:36 327 18 gusting 19
2019-Dec-11 17:30 337 14 gusting 18
2019-Dec-11 17:24 328 15 gusting 18
2019-Dec-11 17:18 336 16 gusting 19
2019-Dec-11 17:12 336 16 gusting 18
2019-Dec-11 17:06 334 17 gusting 22
2019-Dec-11 17:00 341 13 gusting 17
2019-Dec-11 16:54 328 15 gusting 20
2019-Dec-11 16:48 330 18 gusting 19
2019-Dec-11 16:42 336 14 gusting 19
2019-Dec-11 16:36 336 17 gusting 19
2019-Dec-11 16:30 344 18 gusting 20
2019-Dec-11 16:24 330 16 gusting 20
2019-Dec-11 16:18 337 18 gusting 21
2019-Dec-11 16:12 332 19 gusting 24
2019-Dec-11 16:06 333 20 gusting 23
2019-Dec-11 16:00 336 19 gusting 23
2019-Dec-11 15:54 333 18 gusting 23
2019-Dec-11 15:48 337 19 gusting 24
2019-Dec-11 15:42 337 20 gusting 22
2019-Dec-11 15:36 335 19 gusting 22
2019-Dec-11 15:30 333 18 gusting 22
2019-Dec-11 15:24 326 19 gusting 22
2019-Dec-11 15:18 339 19 gusting 23
2019-Dec-11 15:12 337 19 gusting 23
2019-Dec-11 15:06 339 19 gusting 23
2019-Dec-11 15:00 343 19 gusting 23
2019-Dec-11 14:54 340 17 gusting 22
2019-Dec-11 14:48 339 19 gusting 22
2019-Dec-11 14:42 342 18 gusting 22
2019-Dec-11 14:36 338 19 gusting 23
2019-Dec-11 14:30 340 19 gusting 20
2019-Dec-11 14:24 337 16 gusting 20
2019-Dec-11 14:18 332 16 gusting 19
2019-Dec-11 14:12 349 17 gusting 19
2019-Dec-11 14:06 345 14 gusting 19
2019-Dec-11 14:00 346 14 gusting 18
2019-Dec-11 13:54 338 16 gusting 19
2019-Dec-11 13:48 346 14 gusting 18
2019-Dec-11 13:42 330 14 gusting 17
2019-Dec-11 13:36 350 12 gusting 15
2019-Dec-11 13:30 342 13 gusting 18
2019-Dec-11 13:24 344 14 gusting 16
2019-Dec-11 13:18 340 14 gusting 16
2019-Dec-11 13:12 340 13 gusting 17
2019-Dec-11 13:06 341 16 gusting 18
2019-Dec-11 13:00 341 14 gusting 18
2019-Dec-11 12:54 339 13 gusting 18
2019-Dec-11 12:48 347 13 gusting 16
2019-Dec-11 12:42 350 15 gusting 18
2019-Dec-11 12:36 338 15 gusting 19
2019-Dec-11 12:30 332 17 gusting 21
2019-Dec-11 12:24 336 15 gusting 19
2019-Dec-11 12:18 346 16 gusting 19
2019-Dec-11 12:12 345 13 gusting 16
2019-Dec-11 12:06 345 13 gusting 17
2019-Dec-11 12:00 355 14 gusting 19
2019-Dec-11 11:54 346 13 gusting 16
2019-Dec-11 11:48 351 13 gusting 16
2019-Dec-11 11:42 351 13 gusting 19
2019-Dec-11 11:36 349 16 gusting 19
2019-Dec-11 11:30 348 14 gusting 18
2019-Dec-11 11:24 343 11 gusting 16
2019-Dec-11 11:18 341 12 gusting 14
2019-Dec-11 11:12 346 14 gusting 16
2019-Dec-11 11:06 343 13 gusting 14
2019-Dec-11 11:00 350 13 gusting 16
2019-Dec-11 10:54 345 13 gusting 16
2019-Dec-11 10:48 346 12 gusting 15
2019-Dec-11 10:42 349 12 gusting 15
2019-Dec-11 10:36 357 13 gusting 14
2019-Dec-11 10:30 002 13 gusting 14
2019-Dec-11 10:24 001 11 gusting 14
2019-Dec-11 10:18 356 12 gusting 15
2019-Dec-11 10:12 351 13 gusting 16
2019-Dec-11 10:06 351 13 gusting 14
2019-Dec-11 10:00 355 14 gusting 17
2019-Dec-11 09:54
2019-Dec-11 09:48 351 16 gusting 18
2019-Dec-11 09:42 349 13 gusting 16
2019-Dec-11 09:36 358 11 gusting 13
2019-Dec-11 09:30 352 13 gusting 15
2019-Dec-11 09:24 354 9 gusting 13
2019-Dec-11 09:18 355 12 gusting 14
2019-Dec-11 09:12 355 13 gusting 17
2019-Dec-11 09:06 002 11 gusting 18
2019-Dec-11 09:00 009 11 gusting 13
2019-Dec-11 08:54 359 12 gusting 16
2019-Dec-11 08:48 360 14 gusting 18
2019-Dec-11 08:42 004 15 gusting 19
2019-Dec-11 08:36 358 14 gusting 19
2019-Dec-11 08:30 360 14 gusting 20
2019-Dec-11 08:24 007 15 gusting 19
2019-Dec-11 08:18 354 14 gusting 20
2019-Dec-11 08:12 007 13 gusting 18
2019-Dec-11 08:06 352 16 gusting 19
2019-Dec-11 08:00 001 15 gusting 19
2019-Dec-11 07:54 008 13 gusting 21
2019-Dec-11 07:48 007 18 gusting 20
2019-Dec-11 07:42 358 14 gusting 19
2019-Dec-11 07:36 002 18 gusting 23
2019-Dec-11 07:30 356 16 gusting 21
2019-Dec-11 07:24 345 17 gusting 19
2019-Dec-11 07:18 358 16 gusting 21
2019-Dec-11 07:12 355 17 gusting 20
2019-Dec-11 07:06 349 19 gusting 22
2019-Dec-11 07:00 358 18 gusting 23
2019-Dec-11 06:54 004 18 gusting 22
2019-Dec-11 06:48 003 13 gusting 16
2019-Dec-11 06:42 359 13 gusting 16
2019-Dec-11 06:36 354 13 gusting 18
2019-Dec-11 06:30 009 13 gusting 18
2019-Dec-11 06:24 349 10 gusting 13
2019-Dec-11 06:18 005 11 gusting 13
2019-Dec-11 06:12 007 9 gusting 13
2019-Dec-11 06:06 360 13 gusting 15
2019-Dec-11 06:00 007 12 gusting 17
2019-Dec-11 05:54 359 13 gusting 18
2019-Dec-11 05:48 355 15 gusting 20
2019-Dec-11 05:42 352 19 gusting 20
2019-Dec-11 05:36 351 18 gusting 21
2019-Dec-11 05:30 353 17 gusting 20
2019-Dec-11 05:24 351 18 gusting 19
2019-Dec-11 05:18 354 17 gusting 19
2019-Dec-11 05:12 002 13 gusting 15
2019-Dec-11 05:06 004 12 gusting 15
2019-Dec-11 05:00 006 12 gusting 15
2019-Dec-11 04:54 017 12 gusting 16
2019-Dec-11 04:48 357 14 gusting 18
2019-Dec-11 04:42 003 14 gusting 16
2019-Dec-11 04:36 003 9 gusting 12
2019-Dec-11 04:30 358 11 gusting 13
2019-Dec-11 04:24 357 11 gusting 16
2019-Dec-11 04:18 001 13 gusting 17
2019-Dec-11 04:12 360 12 gusting 15
2019-Dec-11 04:06 352 13 gusting 16
2019-Dec-11 04:00 339 13 gusting 15
2019-Dec-11 03:54 348 13 gusting 16
2019-Dec-11 03:48 342 13 gusting 15
2019-Dec-11 03:42 352 13 gusting 16
2019-Dec-11 03:36 359 15 gusting 19
2019-Dec-11 03:30 004 13 gusting 18
2019-Dec-11 03:24 007 13 gusting 17
2019-Dec-11 03:18 004 12 gusting 16
2019-Dec-11 03:12 003 14 gusting 18
2019-Dec-11 03:06 359 11 gusting 14
2019-Dec-11 03:00 360 11 gusting 13
2019-Dec-11 02:54 005 13 gusting 15
2019-Dec-11 02:48 008 10 gusting 13
2019-Dec-11 02:42 009 12 gusting 14
2019-Dec-11 02:36 010 12 gusting 15
2019-Dec-11 02:30 013 13 gusting 15
2019-Dec-11 02:24
2019-Dec-11 02:18 001 13 gusting 14
2019-Dec-11 02:12 011 11 gusting 14
2019-Dec-11 02:06 013 11 gusting 13
2019-Dec-11 02:00 350 10 gusting 14
2019-Dec-11 01:54 348 13 gusting 13
2019-Dec-11 01:42 322 10 gusting 12
2019-Dec-11 01:36 311 10 gusting 12
2019-Dec-11 01:30 305 9 gusting 10
2019-Dec-11 01:24 326 8 gusting 9
2019-Dec-11 01:18 322 7 gusting 8
2019-Dec-11 01:12 324 8 gusting 9
2019-Dec-11 01:06 325 7 gusting 8
2019-Dec-11 01:00 334 7 gusting 9
2019-Dec-11 00:54 337 8 gusting 9
2019-Dec-11 00:48 349 8 gusting 9
2019-Dec-11 00:42 349 8 gusting 13
2019-Dec-11 00:36 336 11 gusting 13
2019-Dec-11 00:30 328 10 gusting 12
2019-Dec-11 00:24 335 10 gusting 12
2019-Dec-11 00:18 347 12 gusting 13
2019-Dec-11 00:12 353 9 gusting 12
2019-Dec-11 00:06 359 9 gusting 12
2019-Dec-11 00:00 006 8 gusting 13
2019-Dec-10 23:54 003 11 gusting 13
2019-Dec-10 23:48 354 9 gusting 12
2019-Dec-10 23:42 359 10 gusting 15
2019-Dec-10 23:36 011 14 gusting 18
2019-Dec-10 23:30 352 4 gusting 6
2019-Dec-10 23:24 353 5 gusting 6
2019-Dec-10 23:18 338 6 gusting 7
2019-Dec-10 23:12 316 7 gusting 8
2019-Dec-10 23:06 311 6 gusting 9
2019-Dec-10 23:00 320 6 gusting 7
2019-Dec-10 22:54 341 7 gusting 9
2019-Dec-10 22:48 333 6 gusting 7
2019-Dec-10 22:42 328 5 gusting 5
2019-Dec-10 22:36 315 2 gusting 3
2019-Dec-10 22:30 344 2 gusting 3
2019-Dec-10 22:24 013 2 gusting 2
2019-Dec-10 22:18 032 2 gusting 4
2019-Dec-10 22:12 032 3 gusting 4
2019-Dec-10 22:06 004 4 gusting 6
2019-Dec-10 22:00 348 5 gusting 5
2019-Dec-10 21:54 336 3 gusting 3
2019-Dec-10 21:48 353 1 gusting 3
2019-Dec-10 21:42 332 2 gusting 2
2019-Dec-10 21:36 354 1 gusting 2
2019-Dec-10 21:30 323 3 gusting 4
2019-Dec-10 21:24 317 4 gusting 5
2019-Dec-10 21:18 353 2 gusting 3
2019-Dec-10 21:12 325 3 gusting 4
2019-Dec-10 21:06 270 3 gusting 6
2019-Dec-10 21:00 262 6 gusting 7
2019-Dec-10 20:54 257 6 gusting 7
2019-Dec-10 20:48 245 3 gusting 7
2019-Dec-10 20:42 233 7 gusting 8
2019-Dec-10 20:36 238 5 gusting 6
2019-Dec-10 20:30 242 4 gusting 5
2019-Dec-10 20:24 243 3 gusting 6
2019-Dec-10 20:18 259 6 gusting 6
2019-Dec-10 20:12 243 4 gusting 6
2019-Dec-10 20:06 248 4 gusting 5
2019-Dec-10 20:00 249 3 gusting 7
2019-Dec-10 19:54 253 4 gusting 6
2019-Dec-10 19:48 262 7 gusting 9
2019-Dec-10 19:42 267 7 gusting 11
2019-Dec-10 19:36 266 9 gusting 12
2019-Dec-10 19:30 259 9 gusting 13
2019-Dec-10 19:24 262 11 gusting 13
2019-Dec-10 19:18 256 9 gusting 14
2019-Dec-10 19:12 265 13 gusting 15
2019-Dec-10 19:06 257 10 gusting 12
2019-Dec-10 19:00 260 10 gusting 13
2019-Dec-10 18:54 262 12 gusting 14
2019-Dec-10 18:48 264 11 gusting 13
2019-Dec-10 18:42 261 9 gusting 13
2019-Dec-10 18:36 267 7 gusting 10
2019-Dec-10 18:30 271 8 gusting 10
2019-Dec-10 18:24 275 6 gusting 7
2019-Dec-10 18:18 281 6 gusting 8
2019-Dec-10 18:12 295 8 gusting 9
2019-Dec-10 18:06 295 8 gusting 10
2019-Dec-10 18:00 295 7 gusting 10